createdAt,value
2023-03-20T00:06:25.456Z,77.10
2023-03-20T00:11:55.686Z,77.40
2023-03-20T00:28:42.579Z,78.00
2023-03-20T00:34:17.373Z,90.80
2023-03-20T00:39:48.251Z,83.30
2023-03-20T00:45:21.192Z,78.10
2023-03-20T00:56:33.588Z,78.20
2023-03-20T01:02:02.926Z,78.30
2023-03-20T01:13:02.018Z,78.30
2023-03-20T01:29:33.307Z,78.60
2023-03-20T01:40:49.379Z,90.40
2023-03-20T01:57:25.385Z,78.90
2023-03-20T02:08:54.112Z,79.10
2023-03-20T02:14:24.333Z,79.10
2023-03-20T02:20:41.582Z,79.10
2023-03-20T02:26:51.035Z,79.20
2023-03-20T02:32:50.379Z,79.30
2023-03-20T02:38:44.474Z,79.40
2023-03-20T02:44:43.929Z,83.50
2023-03-20T02:51:20.836Z,81.90
2023-03-20T03:02:39.252Z,79.80
2023-03-20T03:08:13.773Z,79.70
2023-03-20T03:13:53.386Z,79.90
2023-03-20T03:19:26.332Z,80.00
2023-03-20T03:24:55.540Z,80.20
2023-03-20T03:30:31.946Z,88.90
2023-03-20T03:36:58.633Z,80.40
2023-03-20T03:42:50.516Z,90.90
2023-03-20T03:48:36.466Z,80.60
2023-03-20T03:54:18.243Z,83.10
2023-03-20T03:59:57.532Z,81.00
2023-03-20T04:05:34.345Z,81.10
2023-03-20T04:11:02.767Z,90.00
2023-03-20T04:21:59.422Z,82.10
2023-03-20T04:32:56.190Z,81.30
2023-03-20T04:38:35.453Z,81.60
2023-03-20T04:49:34.715Z,81.70
2023-03-20T05:05:59.992Z,88.10
2023-03-20T05:11:29.489Z,86.60
2023-03-20T05:28:34.143Z,81.90
2023-03-20T05:34:11.344Z,83.30
2023-03-20T05:39:45.481Z,82.70
2023-03-20T05:51:31.428Z,82.50
2023-03-20T05:57:19.905Z,81.90
2023-03-20T06:02:53.755Z,82.00
2023-03-20T06:14:09.876Z,82.40
2023-03-20T06:19:41.388Z,82.50
2023-03-20T06:25:19.687Z,82.60
2023-03-20T06:36:23.883Z,82.70
2023-03-20T06:41:57.132Z,82.80
2023-03-20T06:52:54.882Z,82.90
2023-03-20T06:58:41.067Z,82.70
2023-03-20T07:04:09.124Z,82.90
2023-03-20T07:09:43.986Z,83.60
2023-03-20T07:15:12.512Z,82.90
2023-03-20T07:37:28.061Z,82.50
2023-03-20T07:43:02.583Z,80.80
2023-03-20T07:54:36.593Z,82.30
2023-03-20T08:00:05.283Z,82.10
2023-03-20T08:11:11.727Z,81.90
2023-03-20T08:22:07.810Z,81.60
2023-03-20T08:27:37.156Z,81.10
2023-03-20T08:33:05.105Z,80.40
2023-03-20T08:38:33.007Z,80.20
2023-03-20T08:44:01.666Z,79.90
2023-03-20T09:06:09.501Z,79.00
2023-03-20T09:11:37.681Z,78.60
2023-03-20T09:17:06.070Z,79.00
2023-03-20T09:22:34.041Z,79.10
2023-03-20T09:28:01.800Z,78.00
2023-03-20T09:38:58.282Z,77.70
2023-03-20T09:44:32.274Z,77.40
2023-03-20T09:55:42.951Z,77.30
2023-03-20T10:01:15.118Z,77.10
2023-03-20T10:06:43.087Z,77.70
2023-03-20T10:12:48.460Z,77.00
2023-03-20T10:18:27.061Z,76.40
2023-03-20T10:24:04.529Z,76.80
2023-03-20T10:30:06.790Z,77.10
2023-03-20T10:36:08.083Z,76.90
2023-03-20T10:41:39.281Z,76.10
2023-03-20T10:47:12.785Z,76.70
2023-03-20T10:52:42.387Z,75.90
2023-03-20T10:58:31.850Z,75.30
2023-03-20T11:03:59.651Z,75.20
2023-03-20T11:09:29.884Z,75.70
2023-03-20T11:15:04.944Z,74.70
2023-03-20T11:21:01.100Z,75.40
2023-03-20T11:32:22.904Z,74.00
2023-03-20T11:37:55.081Z,74.50
2023-03-20T11:43:28.803Z,73.80
2023-03-20T11:49:27.903Z,72.60
2023-03-20T11:54:58.563Z,73.50
2023-03-20T12:00:49.434Z,71.30
2023-03-20T12:06:26.545Z,71.20
2023-03-20T12:12:22.380Z,71.20
2023-03-20T12:17:59.908Z,70.50
2023-03-20T12:24:04.738Z,70.90
2023-03-20T12:29:52.952Z,69.30
2023-03-20T12:35:45.218Z,68.10
2023-03-20T12:41:25.353Z,68.20
2023-03-20T12:47:34.658Z,68.40
2023-03-20T12:53:39.700Z,68.60
2023-03-20T12:59:34.600Z,68.90
2023-03-20T13:05:46.591Z,68.90
2023-03-20T13:11:29.048Z,68.80
2023-03-20T13:17:27.819Z,68.70
2023-03-20T13:23:07.696Z,68.80
2023-03-20T13:29:29.437Z,68.50
2023-03-20T13:35:18.611Z,67.70
2023-03-20T13:40:59.082Z,68.30
2023-03-20T13:46:38.397Z,67.90
2023-03-20T13:52:18.624Z,66.90
2023-03-20T13:57:55.494Z,64.20
2023-03-20T14:03:33.452Z,62.40
2023-03-20T14:09:01.409Z,60.00
2023-03-20T14:14:39.345Z,58.40
2023-03-20T14:20:24.448Z,52.60
2023-03-20T14:25:55.879Z,50.80
2023-03-20T14:31:38.455Z,53.50
2023-03-20T14:37:56.987Z,54.10
2023-03-20T14:44:15.997Z,57.30
2023-03-20T14:50:24.986Z,59.40
2023-03-20T14:55:55.794Z,57.10
2023-03-20T15:01:29.788Z,58.80
2023-03-20T15:07:22.530Z,58.50
2023-03-20T15:12:51.871Z,56.00
2023-03-20T15:18:22.705Z,58.70
2023-03-20T15:23:50.762Z,58.40
2023-03-20T15:29:21.853Z,58.00
2023-03-20T15:34:51.957Z,58.60
2023-03-20T15:40:47.625Z,58.70
2023-03-20T15:51:51.131Z,58.90
2023-03-20T15:57:42.308Z,59.00
2023-03-20T16:03:19.243Z,59.00
2023-03-20T16:09:08.206Z,59.10
2023-03-20T16:14:36.780Z,58.90
2023-03-20T16:20:05.918Z,59.50
2023-03-20T16:25:36.807Z,59.80
2023-03-20T16:31:18.978Z,59.20
2023-03-20T16:36:57.793Z,59.60
2023-03-20T16:42:29.478Z,59.80
2023-03-20T16:48:17.504Z,59.90
2023-03-20T16:53:49.239Z,58.00
2023-03-20T16:59:19.691Z,60.20
2023-03-20T17:04:49.444Z,60.80
2023-03-20T17:10:21.912Z,60.40
2023-03-20T17:15:51.114Z,61.30
2023-03-20T17:21:19.521Z,60.90
2023-03-20T17:26:55.192Z,61.30
2023-03-20T17:43:22.082Z,61.70
2023-03-20T17:48:51.810Z,61.90
2023-03-20T17:54:19.882Z,62.20
2023-03-20T17:59:50.189Z,62.30
2023-03-20T18:05:21.179Z,62.40
2023-03-20T18:10:51.964Z,62.70
2023-03-20T18:16:27.771Z,62.70
2023-03-20T18:21:57.178Z,63.00
2023-03-20T18:27:26.343Z,63.00
2023-03-20T18:32:55.443Z,63.80
2023-03-20T18:38:24.879Z,64.40
2023-03-20T18:43:55.677Z,64.50
2023-03-20T18:49:23.700Z,64.70
2023-03-20T18:54:52.827Z,64.80
2023-03-20T19:00:29.170Z,65.60
2023-03-20T19:05:58.604Z,65.20
2023-03-20T19:11:26.463Z,65.80
2023-03-20T19:16:54.383Z,66.10
2023-03-20T19:22:29.357Z,65.60
2023-03-20T19:33:26.341Z,65.80
2023-03-20T19:38:55.953Z,65.90
2023-03-20T19:49:52.129Z,66.40
2023-03-20T19:55:25.539Z,66.50
2023-03-20T20:01:12.253Z,66.50
2023-03-20T20:06:42.041Z,67.30
2023-03-20T20:12:10.744Z,67.50
2023-03-20T20:17:40.349Z,67.00
2023-03-20T20:23:23.761Z,67.10
2023-03-20T20:28:51.952Z,67.80
2023-03-20T20:40:12.684Z,68.00
2023-03-20T20:45:42.193Z,67.60
2023-03-20T20:51:10.304Z,68.40
2023-03-20T21:07:47.359Z,68.30
2023-03-20T21:13:16.256Z,68.90
2023-03-20T21:18:45.451Z,68.50
2023-03-20T21:24:31.078Z,68.80
2023-03-20T21:30:03.543Z,68.70
2023-03-20T21:35:31.390Z,68.70
2023-03-20T21:41:08.569Z,68.90
2023-03-20T21:47:10.315Z,71.00
2023-03-20T21:59:03.752Z,69.40
2023-03-20T22:05:09.368Z,69.40
2023-03-20T22:10:37.575Z,69.50
2023-03-20T22:22:05.534Z,69.60
2023-03-20T22:27:55.357Z,69.80
2023-03-20T22:44:59.102Z,70.20
2023-03-20T22:50:29.040Z,70.10
2023-03-20T22:55:57.189Z,70.70
2023-03-20T23:01:25.147Z,70.80
2023-03-20T23:12:21.879Z,70.60
2023-03-20T23:28:51.474Z,70.90
2023-03-20T23:45:20.452Z,71.20
2023-03-20T23:50:53.362Z,71.20
